sensor_id;sensor_type;location;lat;lon;timestamp;P1;durP1;ratioP1;P2;durP2;ratioP2
74959;SDS011;63518;49.572;1.106;2023-04-08T00:00:28;7.32;;;2.00;;
74959;SDS011;63518;49.572;1.106;2023-04-08T00:02:55;8.43;;;2.15;;
74959;SDS011;63518;49.572;1.106;2023-04-08T00:05:22;5.85;;;1.75;;
74959;SDS011;63518;49.572;1.106;2023-04-08T00:07:49;4.63;;;1.58;;
74959;SDS011;63518;49.572;1.106;2023-04-08T00:10:16;4.95;;;2.03;;
74959;SDS011;63518;49.572;1.106;2023-04-08T00:12:43;5.10;;;2.15;;
74959;SDS011;63518;49.572;1.106;2023-04-08T00:15:10;6.10;;;1.90;;
74959;SDS011;63518;49.572;1.106;2023-04-08T00:17:37;5.57;;;1.77;;
74959;SDS011;63518;49.572;1.106;2023-04-08T00:20:04;5.68;;;1.98;;
74959;SDS011;63518;49.572;1.106;2023-04-08T00:22:31;4.93;;;1.80;;
74959;SDS011;63518;49.572;1.106;2023-04-08T00:24:58;6.22;;;1.90;;
74959;SDS011;63518;49.572;1.106;2023-04-08T00:27:25;8.70;;;2.75;;
74959;SDS011;63518;49.572;1.106;2023-04-08T00:29:52;5.93;;;2.42;;
74959;SDS011;63518;49.572;1.106;2023-04-08T00:32:18;4.70;;;1.67;;
74959;SDS011;63518;49.572;1.106;2023-04-08T00:34:45;5.20;;;1.83;;
74959;SDS011;63518;49.572;1.106;2023-04-08T00:37:12;6.32;;;2.00;;
74959;SDS011;63518;49.572;1.106;2023-04-08T00:39:39;5.20;;;1.83;;
74959;SDS011;63518;49.572;1.106;2023-04-08T00:42:05;5.15;;;1.67;;
74959;SDS011;63518;49.572;1.106;2023-04-08T00:44:32;4.72;;;1.98;;
74959;SDS011;63518;49.572;1.106;2023-04-08T00:46:59;7.65;;;1.90;;
74959;SDS011;63518;49.572;1.106;2023-04-08T00:49:26;5.47;;;1.63;;
74959;SDS011;63518;49.572;1.106;2023-04-08T00:51:53;4.60;;;1.38;;
74959;SDS011;63518;49.572;1.106;2023-04-08T00:54:20;4.32;;;1.30;;
74959;SDS011;63518;49.572;1.106;2023-04-08T00:56:47;5.47;;;1.90;;
74959;SDS011;63518;49.572;1.106;2023-04-08T00:59:16;6.60;;;1.73;;
74959;SDS011;63518;49.572;1.106;2023-04-08T01:01:45;6.03;;;2.28;;
74959;SDS011;63518;49.572;1.106;2023-04-08T01:07:00;5.63;;;1.80;;
74959;SDS011;63518;49.572;1.106;2023-04-08T01:09:34;9.90;;;2.35;;
74959;SDS011;63518;49.572;1.106;2023-04-08T01:12:05;6.53;;;1.90;;
74959;SDS011;63518;49.572;1.106;2023-04-08T01:14:36;9.45;;;2.47;;
74959;SDS011;63518;49.572;1.106;2023-04-08T01:17:07;6.50;;;2.28;;
74959;SDS011;63518;49.572;1.106;2023-04-08T01:19:37;5.78;;;1.80;;
74959;SDS011;63518;49.572;1.106;2023-04-08T01:22:18;5.28;;;1.95;;
74959;SDS011;63518;49.572;1.106;2023-04-08T01:24:56;6.00;;;1.88;;
74959;SDS011;63518;49.572;1.106;2023-04-08T01:27:28;5.75;;;2.03;;
74959;SDS011;63518;49.572;1.106;2023-04-08T01:29:57;6.78;;;1.90;;
74959;SDS011;63518;49.572;1.106;2023-04-08T01:32:26;6.05;;;2.20;;
74959;SDS011;63518;49.572;1.106;2023-04-08T01:34:55;7.47;;;2.20;;
74959;SDS011;63518;49.572;1.106;2023-04-08T01:37:22;4.75;;;1.90;;
74959;SDS011;63518;49.572;1.106;2023-04-08T01:39:51;5.90;;;2.28;;
74959;SDS011;63518;49.572;1.106;2023-04-08T01:42:21;5.90;;;2.42;;
74959;SDS011;63518;49.572;1.106;2023-04-08T01:44:51;5.68;;;2.05;;
74959;SDS011;63518;49.572;1.106;2023-04-08T01:47:20;6.95;;;2.40;;
74959;SDS011;63518;49.572;1.106;2023-04-08T01:49:50;5.97;;;1.90;;
74959;SDS011;63518;49.572;1.106;2023-04-08T01:52:18;5.68;;;2.00;;
74959;SDS011;63518;49.572;1.106;2023-04-08T01:54:47;8.30;;;1.73;;
74959;SDS011;63518;49.572;1.106;2023-04-08T01:57:16;6.97;;;1.88;;
74959;SDS011;63518;49.572;1.106;2023-04-08T01:59:46;4.15;;;1.38;;
74959;SDS011;63518;49.572;1.106;2023-04-08T02:02:17;5.80;;;2.00;;
74959;SDS011;63518;49.572;1.106;2023-04-08T02:04:50;6.80;;;1.42;;
74959;SDS011;63518;49.572;1.106;2023-04-08T02:07:17;4.18;;;1.33;;
74959;SDS011;63518;49.572;1.106;2023-04-08T02:09:44;5.35;;;1.52;;
74959;SDS011;63518;49.572;1.106;2023-04-08T02:12:11;5.18;;;1.45;;
74959;SDS011;63518;49.572;1.106;2023-04-08T02:14:38;5.85;;;1.85;;
74959;SDS011;63518;49.572;1.106;2023-04-08T02:19:49;4.72;;;1.75;;
74959;SDS011;63518;49.572;1.106;2023-04-08T02:22:24;5.78;;;1.70;;
74959;SDS011;63518;49.572;1.106;2023-04-08T02:25:03;7.60;;;1.67;;
74959;SDS011;63518;49.572;1.106;2023-04-08T02:27:34;7.43;;;1.77;;
74959;SDS011;63518;49.572;1.106;2023-04-08T02:30:02;3.88;;;1.60;;
74959;SDS011;63518;49.572;1.106;2023-04-08T02:32:31;5.18;;;1.58;;
74959;SDS011;63518;49.572;1.106;2023-04-08T02:35:00;8.02;;;1.98;;
74959;SDS011;63518;49.572;1.106;2023-04-08T02:37:29;5.40;;;2.00;;
74959;SDS011;63518;49.572;1.106;2023-04-08T02:39:57;6.05;;;1.17;;
74959;SDS011;63518;49.572;1.106;2023-04-08T02:42:25;3.78;;;1.48;;
74959;SDS011;63518;49.572;1.106;2023-04-08T02:44:51;6.70;;;1.92;;
74959;SDS011;63518;49.572;1.106;2023-04-08T02:47:18;6.75;;;1.40;;
74959;SDS011;63518;49.572;1.106;2023-04-08T02:49:45;4.53;;;1.45;;
74959;SDS011;63518;49.572;1.106;2023-04-08T02:52:12;6.60;;;1.85;;
74959;SDS011;63518;49.572;1.106;2023-04-08T02:54:39;5.05;;;1.75;;
74959;SDS011;63518;49.572;1.106;2023-04-08T02:57:06;4.93;;;1.75;;
74959;SDS011;63518;49.572;1.106;2023-04-08T02:59:32;5.47;;;1.58;;
74959;SDS011;63518;49.572;1.106;2023-04-08T03:01:59;4.55;;;1.70;;
74959;SDS011;63518;49.572;1.106;2023-04-08T03:04:26;8.45;;;1.55;;
74959;SDS011;63518;49.572;1.106;2023-04-08T03:06:53;5.07;;;1.70;;
74959;SDS011;63518;49.572;1.106;2023-04-08T03:09:20;4.88;;;1.50;;
74959;SDS011;63518;49.572;1.106;2023-04-08T03:11:46;4.47;;;1.83;;
74959;SDS011;63518;49.572;1.106;2023-04-08T03:14:19;5.32;;;1.65;;
74959;SDS011;63518;49.572;1.106;2023-04-08T03:16:46;5.53;;;1.42;;
74959;SDS011;63518;49.572;1.106;2023-04-08T03:19:13;5.38;;;1.35;;
74959;SDS011;63518;49.572;1.106;2023-04-08T03:21:40;4.75;;;1.45;;
74959;SDS011;63518;49.572;1.106;2023-04-08T03:24:07;4.30;;;1.42;;
74959;SDS011;63518;49.572;1.106;2023-04-08T03:26:33;7.60;;;2.05;;
74959;SDS011;63518;49.572;1.106;2023-04-08T03:29:00;5.72;;;1.50;;
74959;SDS011;63518;49.572;1.106;2023-04-08T03:31:27;4.22;;;1.75;;
74959;SDS011;63518;49.572;1.106;2023-04-08T03:33:54;4.30;;;1.50;;
74959;SDS011;63518;49.572;1.106;2023-04-08T03:36:21;4.03;;;1.13;;
74959;SDS011;63518;49.572;1.106;2023-04-08T03:38:48;5.60;;;1.38;;
74959;SDS011;63518;49.572;1.106;2023-04-08T03:41:15;4.25;;;1.75;;
74959;SDS011;63518;49.572;1.106;2023-04-08T03:43:42;4.28;;;1.48;;
74959;SDS011;63518;49.572;1.106;2023-04-08T03:46:08;6.63;;;1.83;;
74959;SDS011;63518;49.572;1.106;2023-04-08T03:48:35;6.40;;;1.67;;
74959;SDS011;63518;49.572;1.106;2023-04-08T03:51:02;7.28;;;2.10;;
74959;SDS011;63518;49.572;1.106;2023-04-08T03:53:29;7.90;;;1.73;;
74959;SDS011;63518;49.572;1.106;2023-04-08T03:55:56;5.20;;;1.73;;
74959;SDS011;63518;49.572;1.106;2023-04-08T03:58:23;5.53;;;1.67;;
74959;SDS011;63518;49.572;1.106;2023-04-08T04:00:50;4.03;;;1.48;;
74959;SDS011;63518;49.572;1.106;2023-04-08T04:03:17;6.10;;;2.22;;
74959;SDS011;63518;49.572;1.106;2023-04-08T04:05:44;6.50;;;1.90;;
74959;SDS011;63518;49.572;1.106;2023-04-08T04:08:11;8.00;;;2.40;;
74959;SDS011;63518;49.572;1.106;2023-04-08T04:10:38;6.45;;;2.17;;
74959;SDS011;63518;49.572;1.106;2023-04-08T04:13:04;5.30;;;1.80;;
74959;SDS011;63518;49.572;1.106;2023-04-08T04:15:31;5.63;;;2.35;;
74959;SDS011;63518;49.572;1.106;2023-04-08T04:17:58;7.30;;;2.30;;
74959;SDS011;63518;49.572;1.106;2023-04-08T04:20:25;4.85;;;2.00;;
74959;SDS011;63518;49.572;1.106;2023-04-08T04:22:52;5.97;;;1.52;;
74959;SDS011;63518;49.572;1.106;2023-04-08T04:25:19;5.15;;;1.67;;
74959;SDS011;63518;49.572;1.106;2023-04-08T04:27:46;5.00;;;1.42;;
74959;SDS011;63518;49.572;1.106;2023-04-08T04:30:13;6.80;;;1.63;;
74959;SDS011;63518;49.572;1.106;2023-04-08T04:32:41;5.32;;;2.35;;
74959;SDS011;63518;49.572;1.106;2023-04-08T04:35:11;4.55;;;1.77;;
74959;SDS011;63518;49.572;1.106;2023-04-08T04:37:38;6.68;;;1.42;;
74959;SDS011;63518;49.572;1.106;2023-04-08T04:40:05;5.40;;;1.50;;
74959;SDS011;63518;49.572;1.106;2023-04-08T04:42:33;4.60;;;1.58;;
74959;SDS011;63518;49.572;1.106;2023-04-08T04:44:59;8.20;;;2.00;;
74959;SDS011;63518;49.572;1.106;2023-04-08T04:47:26;4.60;;;1.25;;
74959;SDS011;63518;49.572;1.106;2023-04-08T04:49:53;8.30;;;1.58;;
74959;SDS011;63518;49.572;1.106;2023-04-08T04:52:20;6.22;;;2.30;;
74959;SDS011;63518;49.572;1.106;2023-04-08T04:54:47;4.13;;;1.48;;
74959;SDS011;63518;49.572;1.106;2023-04-08T04:57:14;4.85;;;1.73;;
74959;SDS011;63518;49.572;1.106;2023-04-08T04:59:41;6.75;;;1.60;;
74959;SDS011;63518;49.572;1.106;2023-04-08T05:02:08;6.13;;;1.48;;
74959;SDS011;63518;49.572;1.106;2023-04-08T05:04:35;4.88;;;1.23;;
74959;SDS011;63518;49.572;1.106;2023-04-08T05:07:01;9.70;;;1.80;;
74959;SDS011;63518;49.572;1.106;2023-04-08T05:09:28;6.93;;;1.85;;
74959;SDS011;63518;49.572;1.106;2023-04-08T05:11:55;4.90;;;1.77;;
74959;SDS011;63518;49.572;1.106;2023-04-08T05:14:22;6.38;;;2.15;;
74959;SDS011;63518;49.572;1.106;2023-04-08T05:16:49;5.88;;;2.25;;
74959;SDS011;63518;49.572;1.106;2023-04-08T05:19:16;5.55;;;2.35;;
74959;SDS011;63518;49.572;1.106;2023-04-08T05:21:43;6.30;;;2.28;;
74959;SDS011;63518;49.572;1.106;2023-04-08T05:24:10;6.05;;;1.90;;
74959;SDS011;63518;49.572;1.106;2023-04-08T05:26:37;7.60;;;2.45;;
74959;SDS011;63518;49.572;1.106;2023-04-08T05:29:04;7.00;;;3.00;;
74959;SDS011;63518;49.572;1.106;2023-04-08T05:31:31;6.80;;;2.47;;
74959;SDS011;63518;49.572;1.106;2023-04-08T05:33:57;5.70;;;1.90;;
74959;SDS011;63518;49.572;1.106;2023-04-08T05:36:24;7.25;;;2.35;;
74959;SDS011;63518;49.572;1.106;2023-04-08T05:38:52;8.32;;;3.17;;
74959;SDS011;63518;49.572;1.106;2023-04-08T05:41:19;7.22;;;2.88;;
74959;SDS011;63518;49.572;1.106;2023-04-08T05:43:46;9.25;;;2.50;;
74959;SDS011;63518;49.572;1.106;2023-04-08T05:46:13;10.50;;;3.35;;
74959;SDS011;63518;49.572;1.106;2023-04-08T05:48:40;7.97;;;2.55;;
74959;SDS011;63518;49.572;1.106;2023-04-08T05:51:11;7.93;;;3.33;;
74959;SDS011;63518;49.572;1.106;2023-04-08T05:53:46;8.10;;;3.08;;
74959;SDS011;63518;49.572;1.106;2023-04-08T05:56:13;8.98;;;3.17;;
74959;SDS011;63518;49.572;1.106;2023-04-08T05:58:39;7.72;;;2.30;;
74959;SDS011;63518;49.572;1.106;2023-04-08T06:01:06;5.55;;;2.17;;
74959;SDS011;63518;49.572;1.106;2023-04-08T06:03:33;5.88;;;2.10;;
74959;SDS011;63518;49.572;1.106;2023-04-08T06:06:00;4.40;;;1.60;;
74959;SDS011;63518;49.572;1.106;2023-04-08T06:08:27;8.10;;;1.90;;
74959;SDS011;63518;49.572;1.106;2023-04-08T06:10:54;4.25;;;1.77;;
74959;SDS011;63518;49.572;1.106;2023-04-08T06:13:21;6.10;;;2.03;;
74959;SDS011;63518;49.572;1.106;2023-04-08T06:15:48;4.82;;;2.00;;
74959;SDS011;63518;49.572;1.106;2023-04-08T06:18:15;6.10;;;2.30;;
74959;SDS011;63518;49.572;1.106;2023-04-08T06:20:42;6.55;;;2.80;;
74959;SDS011;63518;49.572;1.106;2023-04-08T06:23:09;6.03;;;2.75;;
74959;SDS011;63518;49.572;1.106;2023-04-08T06:25:36;8.82;;;2.47;;
74959;SDS011;63518;49.572;1.106;2023-04-08T06:28:03;8.18;;;2.65;;
74959;SDS011;63518;49.572;1.106;2023-04-08T06:30:30;8.25;;;2.97;;
74959;SDS011;63518;49.572;1.106;2023-04-08T06:32:57;7.13;;;2.78;;
74959;SDS011;63518;49.572;1.106;2023-04-08T06:35:24;7.22;;;2.53;;
74959;SDS011;63518;49.572;1.106;2023-04-08T06:37:51;5.82;;;1.88;;
74959;SDS011;63518;49.572;1.106;2023-04-08T06:40:17;6.25;;;2.20;;
74959;SDS011;63518;49.572;1.106;2023-04-08T06:42:44;7.57;;;2.20;;
74959;SDS011;63518;49.572;1.106;2023-04-08T06:45:11;9.30;;;2.72;;
74959;SDS011;63518;49.572;1.106;2023-04-08T06:47:38;4.68;;;1.50;;
74959;SDS011;63518;49.572;1.106;2023-04-08T06:50:05;7.53;;;2.30;;
74959;SDS011;63518;49.572;1.106;2023-04-08T06:52:32;9.10;;;2.20;;
74959;SDS011;63518;49.572;1.106;2023-04-08T06:54:59;5.50;;;1.88;;
74959;SDS011;63518;49.572;1.106;2023-04-08T06:57:26;5.72;;;1.90;;
74959;SDS011;63518;49.572;1.106;2023-04-08T06:59:53;6.30;;;1.65;;
74959;SDS011;63518;49.572;1.106;2023-04-08T07:02:20;8.07;;;1.77;;
74959;SDS011;63518;49.572;1.106;2023-04-08T07:04:48;5.60;;;1.65;;
74959;SDS011;63518;49.572;1.106;2023-04-08T07:07:15;6.95;;;2.08;;
74959;SDS011;63518;49.572;1.106;2023-04-08T07:09:41;5.75;;;1.20;;
74959;SDS011;63518;49.572;1.106;2023-04-08T07:12:11;7.72;;;1.60;;
74959;SDS011;63518;49.572;1.106;2023-04-08T07:14:38;8.18;;;2.63;;
74959;SDS011;63518;49.572;1.106;2023-04-08T07:17:05;11.45;;;3.65;;
74959;SDS011;63518;49.572;1.106;2023-04-08T07:19:32;6.50;;;2.25;;
74959;SDS011;63518;49.572;1.106;2023-04-08T07:21:59;6.05;;;1.80;;
74959;SDS011;63518;49.572;1.106;2023-04-08T07:24:26;6.82;;;1.90;;
74959;SDS011;63518;49.572;1.106;2023-04-08T07:26:52;7.32;;;2.45;;
74959;SDS011;63518;49.572;1.106;2023-04-08T07:29:21;6.68;;;2.30;;
74959;SDS011;63518;49.572;1.106;2023-04-08T07:31:48;15.23;;;3.33;;
74959;SDS011;63518;49.572;1.106;2023-04-08T07:34:15;11.38;;;3.80;;
74959;SDS011;63518;49.572;1.106;2023-04-08T07:36:42;8.68;;;3.45;;
74959;SDS011;63518;49.572;1.106;2023-04-08T07:39:08;10.07;;;3.28;;
74959;SDS011;63518;49.572;1.106;2023-04-08T07:41:35;7.68;;;2.55;;
74959;SDS011;63518;49.572;1.106;2023-04-08T07:44:02;5.15;;;1.67;;
74959;SDS011;63518;49.572;1.106;2023-04-08T07:46:29;8.75;;;2.25;;
74959;SDS011;63518;49.572;1.106;2023-04-08T07:48:57;7.35;;;2.88;;
74959;SDS011;63518;49.572;1.106;2023-04-08T07:51:23;11.15;;;3.70;;
74959;SDS011;63518;49.572;1.106;2023-04-08T07:53:50;10.70;;;2.90;;
74959;SDS011;63518;49.572;1.106;2023-04-08T07:56:17;8.02;;;2.58;;
74959;SDS011;63518;49.572;1.106;2023-04-08T07:58:45;8.00;;;3.03;;
74959;SDS011;63518;49.572;1.106;2023-04-08T08:01:21;5.30;;;1.75;;
74959;SDS011;63518;49.572;1.106;2023-04-08T08:06:17;6.90;;;2.08;;
74959;SDS011;63518;49.572;1.106;2023-04-08T08:08:45;10.27;;;2.85;;
74959;SDS011;63518;49.572;1.106;2023-04-08T08:11:12;5.93;;;2.20;;
74959;SDS011;63518;49.572;1.106;2023-04-08T08:13:39;5.38;;;1.58;;
74959;SDS011;63518;49.572;1.106;2023-04-08T08:16:06;6.95;;;1.80;;
74959;SDS011;63518;49.572;1.106;2023-04-08T08:18:34;9.15;;;3.00;;
74959;SDS011;63518;49.572;1.106;2023-04-08T08:21:02;8.98;;;3.47;;
74959;SDS011;63518;49.572;1.106;2023-04-08T08:23:29;7.30;;;2.28;;
74959;SDS011;63518;49.572;1.106;2023-04-08T08:26:03;6.25;;;1.80;;
74959;SDS011;63518;49.572;1.106;2023-04-08T08:28:32;7.95;;;2.80;;
74959;SDS011;63518;49.572;1.106;2023-04-08T08:30:59;7.45;;;2.30;;
74959;SDS011;63518;49.572;1.106;2023-04-08T08:33:26;6.57;;;1.30;;
74959;SDS011;63518;49.572;1.106;2023-04-08T08:35:52;3.60;;;1.40;;
74959;SDS011;63518;49.572;1.106;2023-04-08T08:38:19;6.03;;;1.38;;
74959;SDS011;63518;49.572;1.106;2023-04-08T08:40:51;4.85;;;1.75;;
74959;SDS011;63518;49.572;1.106;2023-04-08T08:43:20;5.60;;;1.75;;
74959;SDS011;63518;49.572;1.106;2023-04-08T08:45:48;4.40;;;1.52;;
74959;SDS011;63518;49.572;1.106;2023-04-08T08:48:14;5.25;;;1.65;;
74959;SDS011;63518;49.572;1.106;2023-04-08T08:50:41;5.53;;;1.52;;
74959;SDS011;63518;49.572;1.106;2023-04-08T08:53:09;4.18;;;1.58;;
74959;SDS011;63518;49.572;1.106;2023-04-08T08:55:36;8.35;;;2.20;;
74959;SDS011;63518;49.572;1.106;2023-04-08T08:58:28;7.45;;;1.73;;
74959;SDS011;63518;49.572;1.106;2023-04-08T09:00:54;6.57;;;2.35;;
74959;SDS011;63518;49.572;1.106;2023-04-08T09:03:22;5.65;;;1.60;;
74959;SDS011;63518;49.572;1.106;2023-04-08T09:05:54;4.60;;;1.63;;
74959;SDS011;63518;49.572;1.106;2023-04-08T09:08:27;4.75;;;1.77;;
74959;SDS011;63518;49.572;1.106;2023-04-08T09:11:09;5.43;;;2.00;;
74959;SDS011;63518;49.572;1.106;2023-04-08T09:13:41;6.15;;;1.83;;
74959;SDS011;63518;49.572;1.106;2023-04-08T09:16:10;6.20;;;1.90;;
74959;SDS011;63518;49.572;1.106;2023-04-08T09:18:39;5.40;;;1.48;;
74959;SDS011;63518;49.572;1.106;2023-04-08T09:21:10;6.38;;;1.92;;
74959;SDS011;63518;49.572;1.106;2023-04-08T09:26:18;4.97;;;1.60;;
74959;SDS011;63518;49.572;1.106;2023-04-08T09:31:44;4.70;;;1.83;;
74959;SDS011;63518;49.572;1.106;2023-04-08T09:34:13;5.20;;;1.60;;
74959;SDS011;63518;49.572;1.106;2023-04-08T09:36:43;4.10;;;1.50;;
74959;SDS011;63518;49.572;1.106;2023-04-08T09:39:10;4.68;;;1.77;;
74959;SDS011;63518;49.572;1.106;2023-04-08T09:41:37;5.85;;;1.70;;
74959;SDS011;63518;49.572;1.106;2023-04-08T09:44:06;8.10;;;3.08;;
74959;SDS011;63518;49.572;1.106;2023-04-08T09:52:10;4.40;;;1.48;;
74959;SDS011;63518;49.572;1.106;2023-04-08T10:00:11;6.18;;;2.00;;
74959;SDS011;63518;49.572;1.106;2023-04-08T10:03:05;8.13;;;2.42;;
74959;SDS011;63518;49.572;1.106;2023-04-08T10:05:39;6.78;;;2.40;;
74959;SDS011;63518;49.572;1.106;2023-04-08T10:08:07;7.25;;;2.33;;
74959;SDS011;63518;49.572;1.106;2023-04-08T10:10:34;6.03;;;2.30;;
74959;SDS011;63518;49.572;1.106;2023-04-08T10:13:04;5.00;;;1.80;;
74959;SDS011;63518;49.572;1.106;2023-04-08T10:15:33;5.97;;;1.80;;
74959;SDS011;63518;49.572;1.106;2023-04-08T10:23:02;4.22;;;1.33;;
74959;SDS011;63518;49.572;1.106;2023-04-08T10:25:34;5.90;;;2.17;;
74959;SDS011;63518;49.572;1.106;2023-04-08T10:30:57;7.25;;;1.92;;
74959;SDS011;63518;49.572;1.106;2023-04-08T10:36:00;4.60;;;1.70;;
74959;SDS011;63518;49.572;1.106;2023-04-08T10:38:43;3.88;;;1.05;;
74959;SDS011;63518;49.572;1.106;2023-04-08T10:41:13;4.72;;;1.50;;
74959;SDS011;63518;49.572;1.106;2023-04-08T10:43:50;5.95;;;2.25;;
74959;SDS011;63518;49.572;1.106;2023-04-08T10:46:17;7.85;;;2.83;;
74959;SDS011;63518;49.572;1.106;2023-04-08T10:48:44;4.50;;;1.75;;
74959;SDS011;63518;49.572;1.106;2023-04-08T10:51:29;5.07;;;1.90;;
74959;SDS011;63518;49.572;1.106;2023-04-08T10:54:32;6.70;;;2.45;;
74959;SDS011;63518;49.572;1.106;2023-04-08T10:56:53;7.50;;;2.38;;
74959;SDS011;63518;49.572;1.106;2023-04-08T10:59:27;7.22;;;2.85;;
74959;SDS011;63518;49.572;1.106;2023-04-08T11:01:55;5.80;;;2.10;;
74959;SDS011;63518;49.572;1.106;2023-04-08T11:04:23;4.57;;;1.77;;
74959;SDS011;63518;49.572;1.106;2023-04-08T11:06:51;7.70;;;2.47;;
74959;SDS011;63518;49.572;1.106;2023-04-08T11:09:18;4.90;;;1.92;;
74959;SDS011;63518;49.572;1.106;2023-04-08T11:11:45;6.32;;;1.85;;
74959;SDS011;63518;49.572;1.106;2023-04-08T11:14:12;5.22;;;1.90;;
74959;SDS011;63518;49.572;1.106;2023-04-08T11:16:39;6.43;;;2.17;;
74959;SDS011;63518;49.572;1.106;2023-04-08T11:19:06;5.35;;;2.08;;
74959;SDS011;63518;49.572;1.106;2023-04-08T11:21:34;6.43;;;2.00;;
74959;SDS011;63518;49.572;1.106;2023-04-08T11:24:09;4.88;;;1.63;;
74959;SDS011;63518;49.572;1.106;2023-04-08T11:26:39;6.57;;;1.85;;
74959;SDS011;63518;49.572;1.106;2023-04-08T11:29:10;6.28;;;2.10;;
74959;SDS011;63518;49.572;1.106;2023-04-08T11:31:40;5.43;;;1.95;;
74959;SDS011;63518;49.572;1.106;2023-04-08T11:34:09;6.32;;;2.42;;
74959;SDS011;63518;49.572;1.106;2023-04-08T11:36:38;5.97;;;2.20;;
74959;SDS011;63518;49.572;1.106;2023-04-08T11:39:10;5.65;;;2.40;;
74959;SDS011;63518;49.572;1.106;2023-04-08T11:41:37;5.53;;;1.92;;
74959;SDS011;63518;49.572;1.106;2023-04-08T11:44:05;6.20;;;2.22;;
74959;SDS011;63518;49.572;1.106;2023-04-08T11:46:33;6.55;;;1.95;;
74959;SDS011;63518;49.572;1.106;2023-04-08T11:49:04;5.53;;;2.00;;
74959;SDS011;63518;49.572;1.106;2023-04-08T11:51:33;4.70;;;2.03;;
74959;SDS011;63518;49.572;1.106;2023-04-08T11:54:04;7.68;;;2.42;;
74959;SDS011;63518;49.572;1.106;2023-04-08T11:56:43;5.90;;;1.90;;
74959;SDS011;63518;49.572;1.106;2023-04-08T11:59:12;4.97;;;1.77;;
74959;SDS011;63518;49.572;1.106;2023-04-08T12:01:39;5.22;;;2.00;;
74959;SDS011;63518;49.572;1.106;2023-04-08T12:04:06;5.85;;;2.42;;
74959;SDS011;63518;49.572;1.106;2023-04-08T12:06:35;5.80;;;2.25;;
74959;SDS011;63518;49.572;1.106;2023-04-08T12:09:02;4.60;;;1.52;;
74959;SDS011;63518;49.572;1.106;2023-04-08T12:11:29;6.05;;;2.22;;
74959;SDS011;63518;49.572;1.106;2023-04-08T12:13:56;5.75;;;2.42;;
74959;SDS011;63518;49.572;1.106;2023-04-08T12:16:23;6.18;;;2.20;;
74959;SDS011;63518;49.572;1.106;2023-04-08T12:18:49;6.85;;;2.10;;
74959;SDS011;63518;49.572;1.106;2023-04-08T12:21:16;7.03;;;2.25;;
74959;SDS011;63518;49.572;1.106;2023-04-08T12:23:43;6.18;;;1.85;;
74959;SDS011;63518;49.572;1.106;2023-04-08T12:26:10;4.47;;;1.80;;
74959;SDS011;63518;49.572;1.106;2023-04-08T12:28:37;5.70;;;2.15;;
74959;SDS011;63518;49.572;1.106;2023-04-08T12:31:04;5.32;;;1.75;;
74959;SDS011;63518;49.572;1.106;2023-04-08T12:33:32;2.58;;;0.85;;
74959;SDS011;63518;49.572;1.106;2023-04-08T12:35:59;7.75;;;1.80;;
74959;SDS011;63518;49.572;1.106;2023-04-08T12:38:27;5.53;;;2.17;;
74959;SDS011;63518;49.572;1.106;2023-04-08T12:40:54;5.53;;;1.90;;
74959;SDS011;63518;49.572;1.106;2023-04-08T12:43:22;5.38;;;2.00;;
74959;SDS011;63518;49.572;1.106;2023-04-08T12:45:51;5.32;;;1.80;;
74959;SDS011;63518;49.572;1.106;2023-04-08T12:48:18;5.43;;;2.08;;
74959;SDS011;63518;49.572;1.106;2023-04-08T12:50:46;6.32;;;2.63;;
74959;SDS011;63518;49.572;1.106;2023-04-08T12:53:13;6.25;;;2.40;;
74959;SDS011;63518;49.572;1.106;2023-04-08T12:55:40;5.60;;;2.35;;
74959;SDS011;63518;49.572;1.106;2023-04-08T12:58:10;9.15;;;3.50;;
74959;SDS011;63518;49.572;1.106;2023-04-08T13:00:38;5.53;;;2.08;;
74959;SDS011;63518;49.572;1.106;2023-04-08T13:03:06;5.00;;;1.60;;
74959;SDS011;63518;49.572;1.106;2023-04-08T18:14:51;9.98;;;3.55;;
74959;SDS011;63518;49.572;1.106;2023-04-08T18:17:18;7.78;;;3.55;;
74959;SDS011;63518;49.572;1.106;2023-04-08T18:19:45;8.02;;;3.90;;
74959;SDS011;63518;49.572;1.106;2023-04-08T18:22:11;8.10;;;4.10;;
74959;SDS011;63518;49.572;1.106;2023-04-08T18:24:38;9.00;;;3.60;;
74959;SDS011;63518;49.572;1.106;2023-04-08T18:27:05;9.05;;;3.90;;
74959;SDS011;63518;49.572;1.106;2023-04-08T18:36:53;8.18;;;3.75;;
74959;SDS011;63518;49.572;1.106;2023-04-08T18:39:20;8.70;;;4.13;;
74959;SDS011;63518;49.572;1.106;2023-04-08T18:41:47;8.25;;;3.92;;
74959;SDS011;63518;49.572;1.106;2023-04-08T18:44:14;10.43;;;4.95;;
74959;SDS011;63518;49.572;1.106;2023-04-08T18:46:41;13.32;;;4.65;;
74959;SDS011;63518;49.572;1.106;2023-04-08T18:49:10;12.18;;;5.22;;
74959;SDS011;63518;49.572;1.106;2023-04-08T18:51:37;11.13;;;4.25;;
74959;SDS011;63518;49.572;1.106;2023-04-08T18:54:03;10.25;;;4.47;;
74959;SDS011;63518;49.572;1.106;2023-04-08T18:56:31;11.13;;;4.55;;
74959;SDS011;63518;49.572;1.106;2023-04-08T18:58:59;10.55;;;4.20;;
74959;SDS011;63518;49.572;1.106;2023-04-08T19:01:26;11.00;;;4.80;;
74959;SDS011;63518;49.572;1.106;2023-04-08T19:03:55;11.02;;;4.28;;
74959;SDS011;63518;49.572;1.106;2023-04-08T19:06:22;10.07;;;4.70;;
74959;SDS011;63518;49.572;1.106;2023-04-08T19:08:49;10.45;;;4.72;;
74959;SDS011;63518;49.572;1.106;2023-04-08T19:11:16;10.05;;;4.00;;
74959;SDS011;63518;49.572;1.106;2023-04-08T19:13:43;9.32;;;4.68;;
74959;SDS011;63518;49.572;1.106;2023-04-08T19:16:10;8.20;;;3.83;;
74959;SDS011;63518;49.572;1.106;2023-04-08T19:18:37;11.55;;;4.60;;
74959;SDS011;63518;49.572;1.106;2023-04-08T19:21:03;10.25;;;4.43;;
74959;SDS011;63518;49.572;1.106;2023-04-08T19:23:30;11.82;;;4.43;;
74959;SDS011;63518;49.572;1.106;2023-04-08T19:25:57;9.85;;;4.35;;
74959;SDS011;63518;49.572;1.106;2023-04-08T19:28:24;8.77;;;4.22;;
74959;SDS011;63518;49.572;1.106;2023-04-08T19:30:50;9.77;;;4.35;;
74959;SDS011;63518;49.572;1.106;2023-04-08T19:33:17;9.25;;;3.75;;
74959;SDS011;63518;49.572;1.106;2023-04-08T19:35:46;9.88;;;4.18;;
74959;SDS011;63518;49.572;1.106;2023-04-08T19:38:14;9.68;;;4.25;;
74959;SDS011;63518;49.572;1.106;2023-04-08T19:40:40;7.70;;;3.78;;
74959;SDS011;63518;49.572;1.106;2023-04-08T19:43:07;13.50;;;4.93;;
74959;SDS011;63518;49.572;1.106;2023-04-08T19:45:36;9.48;;;3.95;;
74959;SDS011;63518;49.572;1.106;2023-04-08T19:48:03;11.23;;;4.18;;
74959;SDS011;63518;49.572;1.106;2023-04-08T19:50:29;12.60;;;5.30;;
74959;SDS011;63518;49.572;1.106;2023-04-08T19:52:56;9.82;;;4.43;;
74959;SDS011;63518;49.572;1.106;2023-04-08T19:55:23;9.63;;;4.43;;
74959;SDS011;63518;49.572;1.106;2023-04-08T19:57:50;10.02;;;4.55;;
74959;SDS011;63518;49.572;1.106;2023-04-08T20:00:20;9.27;;;3.65;;
74959;SDS011;63518;49.572;1.106;2023-04-08T20:02:47;9.82;;;4.32;;
74959;SDS011;63518;49.572;1.106;2023-04-08T20:05:14;9.18;;;3.85;;
74959;SDS011;63518;49.572;1.106;2023-04-08T20:07:41;9.02;;;4.05;;
74959;SDS011;63518;49.572;1.106;2023-04-08T20:10:09;10.05;;;3.70;;
74959;SDS011;63518;49.572;1.106;2023-04-08T20:12:36;10.02;;;4.07;;
74959;SDS011;63518;49.572;1.106;2023-04-08T20:15:03;8.77;;;4.35;;
74959;SDS011;63518;49.572;1.106;2023-04-08T20:17:31;9.23;;;3.92;;
74959;SDS011;63518;49.572;1.106;2023-04-08T20:19:57;11.27;;;4.53;;
74959;SDS011;63518;49.572;1.106;2023-04-08T20:22:24;8.23;;;3.75;;
74959;SDS011;63518;49.572;1.106;2023-04-08T20:24:52;7.85;;;3.13;;
74959;SDS011;63518;49.572;1.106;2023-04-08T20:27:18;8.55;;;3.55;;
74959;SDS011;63518;49.572;1.106;2023-04-08T20:29:45;7.32;;;2.88;;
74959;SDS011;63518;49.572;1.106;2023-04-08T20:32:12;9.63;;;3.63;;
74959;SDS011;63518;49.572;1.106;2023-04-08T20:34:39;8.25;;;3.40;;
74959;SDS011;63518;49.572;1.106;2023-04-08T20:37:07;12.93;;;4.43;;
74959;SDS011;63518;49.572;1.106;2023-04-08T20:39:33;8.05;;;3.10;;
74959;SDS011;63518;49.572;1.106;2023-04-08T20:42:00;9.50;;;3.33;;